createdAt,value
2022-08-10T00:01:53.203Z,21.90
2022-08-10T00:04:24.483Z,21.90
2022-08-10T00:06:55.423Z,21.90
2022-08-10T00:09:23.400Z,21.90
2022-08-10T00:11:50.906Z,21.80
2022-08-10T00:14:18.311Z,21.90
2022-08-10T00:16:45.159Z,21.80
2022-08-10T00:19:12.078Z,21.80
2022-08-10T00:21:39.292Z,21.80
2022-08-10T00:24:06.324Z,21.80
2022-08-10T00:27:58.849Z,21.80
2022-08-10T00:29:21.391Z,21.80
2022-08-10T00:31:57.889Z,21.80
2022-08-10T00:34:34.077Z,21.80
2022-08-10T00:37:01.309Z,21.70
2022-08-10T00:39:29.449Z,21.70
2022-08-10T00:42:06.576Z,21.70
2022-08-10T00:44:37.020Z,21.70
2022-08-10T00:47:04.411Z,21.70
2022-08-10T00:49:31.375Z,21.70
2022-08-10T00:51:58.452Z,21.60
2022-08-10T00:54:25.630Z,21.60
2022-08-10T00:57:16.442Z,21.60
2022-08-10T00:59:59.276Z,21.50
2022-08-10T01:02:30.727Z,21.50
2022-08-10T01:05:02.138Z,21.50
2022-08-10T01:07:50.908Z,21.50
2022-08-10T01:10:48.002Z,21.50
2022-08-10T01:13:40.315Z,21.40
2022-08-10T01:16:49.375Z,21.40
2022-08-10T01:19:18.996Z,21.40
2022-08-10T01:22:04.258Z,21.40
2022-08-10T01:24:47.123Z,21.40
2022-08-10T01:27:47.333Z,21.40
2022-08-10T01:30:15.380Z,21.50
2022-08-10T01:32:51.081Z,21.50
2022-08-10T01:35:47.023Z,21.50
2022-08-10T01:38:20.160Z,21.50
2022-08-10T01:40:54.699Z,21.50
2022-08-10T01:43:24.243Z,21.50
2022-08-10T01:45:56.216Z,21.50
2022-08-10T01:48:31.916Z,21.40
2022-08-10T01:51:11.074Z,21.40
2022-08-10T01:53:43.113Z,21.40
2022-08-10T01:56:13.418Z,21.30
2022-08-10T01:58:41.545Z,21.30
2022-08-10T02:01:11.107Z,21.20
2022-08-10T02:04:03.850Z,21.20
2022-08-10T02:06:37.011Z,21.20
2022-08-10T02:09:07.154Z,21.20
2022-08-10T02:11:55.640Z,21.20
2022-08-10T02:14:33.263Z,21.20
2022-08-10T02:17:05.771Z,21.10
2022-08-10T02:19:35.297Z,21.10
2022-08-10T02:22:37.954Z,21.00
2022-08-10T02:24:52.176Z,21.00
2022-08-10T02:27:22.624Z,21.00
2022-08-10T02:29:50.612Z,20.90
2022-08-10T02:32:35.977Z,21.00
2022-08-10T02:35:21.776Z,21.00
2022-08-10T02:37:52.699Z,21.00
2022-08-10T02:42:18.328Z,20.90
2022-08-10T02:45:22.070Z,20.90
2022-08-10T02:46:10.665Z,20.90
2022-08-10T02:48:49.714Z,20.80
2022-08-10T02:52:06.266Z,20.70
2022-08-10T02:54:19.998Z,20.70
2022-08-10T02:57:00.806Z,20.60
2022-08-10T02:59:43.165Z,20.60
2022-08-10T03:02:15.021Z,20.50
2022-08-10T03:04:55.184Z,20.40
2022-08-10T03:07:43.376Z,20.40
2022-08-10T03:10:17.340Z,20.40
2022-08-10T03:12:45.611Z,20.40
2022-08-10T03:15:16.027Z,20.40
2022-08-10T03:17:58.140Z,20.40
2022-08-10T03:20:52.833Z,20.40
2022-08-10T03:23:23.957Z,20.40
2022-08-10T03:25:55.380Z,20.40
2022-08-10T03:28:25.195Z,20.40
2022-08-10T03:30:53.010Z,20.40
2022-08-10T03:33:22.051Z,20.30
2022-08-10T03:36:40.643Z,20.30
2022-08-10T03:38:36.655Z,20.30
2022-08-10T03:41:06.131Z,20.20
2022-08-10T03:43:34.703Z,20.20
2022-08-10T03:46:06.323Z,20.20
2022-08-10T03:48:48.465Z,20.20
2022-08-10T03:51:17.475Z,20.20
2022-08-10T03:54:05.064Z,20.20
2022-08-10T03:56:33.245Z,20.20
2022-08-10T03:59:01.291Z,20.20
2022-08-10T04:02:46.141Z,20.20
2022-08-10T04:04:20.957Z,20.30
2022-08-10T04:06:54.684Z,20.30
2022-08-10T04:09:42.783Z,20.30
2022-08-10T04:12:12.664Z,20.40
2022-08-10T04:14:50.886Z,20.30
2022-08-10T04:17:57.166Z,20.30
2022-08-10T04:20:25.598Z,20.30
2022-08-10T04:22:59.484Z,20.30
2022-08-10T04:25:27.867Z,20.40
2022-08-10T04:27:55.340Z,20.40
2022-08-10T04:30:23.830Z,20.40
2022-08-10T04:32:56.631Z,20.40
2022-08-10T04:35:26.106Z,20.50
2022-08-10T04:37:55.834Z,20.40
2022-08-10T04:40:28.587Z,20.50
2022-08-10T04:43:02.371Z,20.50
2022-08-10T04:45:49.681Z,20.50
2022-08-10T04:48:43.166Z,20.50
2022-08-10T04:51:08.125Z,20.50
2022-08-10T04:54:04.245Z,20.50
2022-08-10T04:56:32.029Z,20.50
2022-08-10T04:59:00.246Z,20.40
2022-08-10T05:01:27.481Z,20.40
2022-08-10T05:04:36.094Z,20.30
2022-08-10T05:07:00.913Z,20.20
2022-08-10T05:09:27.724Z,20.20
2022-08-10T05:11:54.563Z,20.20
2022-08-10T05:14:21.307Z,20.20
2022-08-10T05:16:48.291Z,20.20
2022-08-10T05:19:15.100Z,20.20
2022-08-10T05:21:52.209Z,20.20
2022-08-10T05:24:28.799Z,20.20
2022-08-10T05:27:09.278Z,20.30
2022-08-10T05:29:36.692Z,20.30
2022-08-10T05:32:03.870Z,20.30
2022-08-10T05:34:30.695Z,20.30
2022-08-10T05:36:58.309Z,20.30
2022-08-10T05:39:30.124Z,20.30
2022-08-10T05:42:01.189Z,20.40
2022-08-10T05:44:29.630Z,20.40
2022-08-10T05:46:56.868Z,20.40
2022-08-10T05:49:23.850Z,20.50
2022-08-10T05:51:51.117Z,20.50
2022-08-10T05:54:18.327Z,20.50
2022-08-10T05:56:55.099Z,20.60
2022-08-10T06:00:10.711Z,20.60
2022-08-10T06:02:40.793Z,20.60
2022-08-10T06:05:14.054Z,20.50
2022-08-10T06:07:59.612Z,20.50
2022-08-10T06:10:32.986Z,20.60
2022-08-10T06:13:30.869Z,20.60
2022-08-10T06:16:05.578Z,20.60
2022-08-10T06:18:32.945Z,20.60
2022-08-10T06:21:00.798Z,20.60
2022-08-10T06:23:30.007Z,20.60
2022-08-10T06:26:08.704Z,20.60
2022-08-10T06:28:54.029Z,20.70
2022-08-10T06:31:47.834Z,20.70
2022-08-10T06:34:20.519Z,20.80
2022-08-10T06:36:49.099Z,20.80
2022-08-10T06:39:32.811Z,20.90
2022-08-10T06:42:30.465Z,20.90
2022-08-10T06:45:03.106Z,20.90
2022-08-10T06:47:42.005Z,20.90
2022-08-10T06:50:44.835Z,21.00
2022-08-10T06:53:13.767Z,21.00
2022-08-10T06:55:55.157Z,21.00
2022-08-10T06:58:29.083Z,21.10
2022-08-10T07:00:56.625Z,21.20
2022-08-10T07:03:31.662Z,21.20
2022-08-10T07:06:00.551Z,21.30
2022-08-10T07:08:32.653Z,21.30
2022-08-10T07:11:02.614Z,21.40
2022-08-10T07:14:15.731Z,21.40
2022-08-10T07:16:19.714Z,21.50
2022-08-10T07:18:48.552Z,21.60
2022-08-10T07:21:17.867Z,21.60
2022-08-10T07:23:59.447Z,21.70
2022-08-10T07:26:30.251Z,21.70
2022-08-10T07:28:58.405Z,21.80
2022-08-10T07:31:51.175Z,21.80
2022-08-10T07:34:21.668Z,21.80
2022-08-10T07:37:00.647Z,21.80
2022-08-10T07:39:58.210Z,21.90
2022-08-10T07:42:21.962Z,21.90
2022-08-10T07:44:50.597Z,22.00
2022-08-10T07:47:52.662Z,22.00
2022-08-10T07:50:13.945Z,22.10
2022-08-10T07:52:42.237Z,22.20
2022-08-10T07:55:14.497Z,22.20
2022-08-10T07:57:44.431Z,22.20
2022-08-10T08:00:12.780Z,22.30
2022-08-10T08:02:52.446Z,22.30
2022-08-10T08:05:53.721Z,22.40
2022-08-10T08:08:10.172Z,22.40
2022-08-10T08:10:38.622Z,22.50
2022-08-10T08:13:06.049Z,22.50
2022-08-10T08:16:18.097Z,22.60
2022-08-10T08:18:25.297Z,22.70
2022-08-10T08:20:54.419Z,22.70
2022-08-10T08:24:30.904Z,22.80
2022-08-10T08:26:11.802Z,22.90
2022-08-10T08:28:43.590Z,23.00
2022-08-10T08:31:10.744Z,23.00
2022-08-10T08:33:42.378Z,23.00
2022-08-10T08:36:10.821Z,23.10
2022-08-10T08:38:38.953Z,23.10
2022-08-10T08:41:45.651Z,23.20
2022-08-10T08:44:34.890Z,23.20
2022-08-10T08:47:33.699Z,23.30
2022-08-10T08:50:15.424Z,23.30
2022-08-10T08:54:01.971Z,23.30
2022-08-10T08:56:26.488Z,23.30
2022-08-10T08:59:19.577Z,23.30
2022-08-10T09:02:22.639Z,23.40
2022-08-10T09:05:17.072Z,23.40
2022-08-10T09:08:10.567Z,23.50
2022-08-10T09:10:42.568Z,23.50
2022-08-10T09:13:34.646Z,23.50
2022-08-10T09:16:24.531Z,23.60
2022-08-10T09:18:54.448Z,23.60
2022-08-10T09:21:58.784Z,23.60
2022-08-10T09:24:46.143Z,23.60
2022-08-10T09:27:20.349Z,23.70
2022-08-10T09:30:02.311Z,23.70
2022-08-10T09:36:16.775Z,23.70
2022-08-10T09:36:21.070Z,23.70
2022-08-10T09:38:37.906Z,23.80
2022-08-10T09:41:13.898Z,23.80
2022-08-10T09:43:57.017Z,23.80
2022-08-10T09:46:42.523Z,23.90
2022-08-10T09:50:04.501Z,23.90
2022-08-10T09:52:58.821Z,23.90
2022-08-10T09:56:19.012Z,23.90
2022-08-10T09:59:26.759Z,23.90
2022-08-10T10:02:27.676Z,23.90
2022-08-10T10:05:03.539Z,23.90
2022-08-10T10:07:30.807Z,24.00
2022-08-10T10:10:08.918Z,24.00
2022-08-10T10:12:54.157Z,24.10
2022-08-10T10:15:54.966Z,24.10
2022-08-10T10:18:49.623Z,24.10
2022-08-10T10:22:00.299Z,24.10
2022-08-10T10:24:47.856Z,24.20
2022-08-10T10:27:32.552Z,24.20
2022-08-10T10:30:08.451Z,24.30
2022-08-10T10:32:47.116Z,24.30
2022-08-10T10:35:31.617Z,24.30
2022-08-10T10:38:03.574Z,24.40
2022-08-10T10:41:13.349Z,24.50
2022-08-10T10:44:04.830Z,24.50
2022-08-10T10:46:53.793Z,24.60
2022-08-10T10:49:38.497Z,24.60
2022-08-10T10:52:26.248Z,24.70
2022-08-10T10:55:03.366Z,24.80
2022-08-10T10:57:58.575Z,24.80
2022-08-10T11:00:37.043Z,24.80
2022-08-10T11:03:15.392Z,24.90
2022-08-10T11:06:09.791Z,24.90
2022-08-10T11:08:52.319Z,25.00
2022-08-10T11:12:01.776Z,25.00
2022-08-10T11:14:41.151Z,25.00
2022-08-10T11:17:18.851Z,25.00
2022-08-10T11:20:02.410Z,25.00
2022-08-10T11:22:37.115Z,25.00
2022-08-10T11:25:26.238Z,25.00
2022-08-10T11:27:52.995Z,25.00
2022-08-10T11:30:42.534Z,25.00
2022-08-10T11:33:31.105Z,25.00
2022-08-10T11:36:05.362Z,25.10
2022-08-10T11:39:03.958Z,25.10
2022-08-10T11:42:09.501Z,25.20
2022-08-10T11:44:53.765Z,25.20
2022-08-10T11:47:45.050Z,25.20
2022-08-10T11:50:36.811Z,25.30
2022-08-10T11:53:03.543Z,25.30
2022-08-10T11:55:33.087Z,25.40
2022-08-10T11:58:27.946Z,25.40
2022-08-10T12:01:02.322Z,25.50
2022-08-10T12:03:34.837Z,25.60
2022-08-10T12:06:04.347Z,25.60
2022-08-10T12:10:04.664Z,25.80
2022-08-10T12:11:26.398Z,25.80
2022-08-10T12:14:21.398Z,25.80
2022-08-10T12:16:52.733Z,25.80
2022-08-10T12:19:59.282Z,25.90
2022-08-10T12:22:31.667Z,25.90
2022-08-10T12:25:03.598Z,25.90
2022-08-10T12:27:46.828Z,26.00
2022-08-10T12:30:18.185Z,25.90
2022-08-10T12:33:03.005Z,25.90
2022-08-10T12:36:16.872Z,26.00
2022-08-10T12:39:13.657Z,26.00
2022-08-10T12:43:02.534Z,26.00
2022-08-10T12:45:19.007Z,26.00
2022-08-10T12:47:52.952Z,25.90
2022-08-10T12:50:32.921Z,26.00
2022-08-10T12:53:41.567Z,26.00
2022-08-10T12:56:08.537Z,26.00
2022-08-10T12:58:58.799Z,26.00
2022-08-10T13:02:09.950Z,26.00
2022-08-10T13:04:24.683Z,26.00
2022-08-10T13:06:52.729Z,26.00
2022-08-10T13:09:24.469Z,26.00
2022-08-10T13:12:35.532Z,25.90
2022-08-10T13:15:45.754Z,26.00
2022-08-10T13:18:18.605Z,26.10
2022-08-10T13:20:52.194Z,26.10
2022-08-10T13:23:26.879Z,26.10
2022-08-10T13:25:56.785Z,26.20
2022-08-10T13:28:39.533Z,26.20
2022-08-10T13:31:16.845Z,26.20
2022-08-10T13:34:36.580Z,26.20
2022-08-10T13:36:47.559Z,26.20
2022-08-10T13:39:17.530Z,26.20
2022-08-10T13:41:47.138Z,26.20
2022-08-10T13:44:27.101Z,26.20
2022-08-10T13:46:55.696Z,26.30
2022-08-10T13:49:23.272Z,26.40
2022-08-10T13:51:54.105Z,26.50
2022-08-10T13:54:29.088Z,26.60
2022-08-10T13:56:57.061Z,26.60
2022-08-10T14:00:37.564Z,26.70
2022-08-10T14:02:48.032Z,26.70
2022-08-10T14:05:22.512Z,26.80
2022-08-10T14:08:00.409Z,26.90
2022-08-10T14:11:08.683Z,27.10
2022-08-10T14:13:21.959Z,27.20
2022-08-10T14:15:50.380Z,27.30
2022-08-10T14:18:18.788Z,27.50
2022-08-10T14:20:47.992Z,27.70
2022-08-10T14:23:16.126Z,27.70
2022-08-10T14:25:45.636Z,27.80
2022-08-10T14:28:14.584Z,27.90
2022-08-10T14:30:43.806Z,28.00
2022-08-10T14:33:15.591Z,28.10
2022-08-10T14:36:22.259Z,28.10
2022-08-10T14:38:35.745Z,28.20
2022-08-10T14:41:11.383Z,28.30
2022-08-10T14:43:42.347Z,28.40
2022-08-10T14:46:19.720Z,28.40
2022-08-10T14:48:49.664Z,28.40
2022-08-10T14:51:26.015Z,28.30
2022-08-10T14:53:55.900Z,28.30
2022-08-10T14:56:28.272Z,28.10
2022-08-10T14:59:05.718Z,28.00
2022-08-10T15:02:39.066Z,27.90
2022-08-10T15:04:28.324Z,27.80
2022-08-10T15:07:12.390Z,27.60
2022-08-10T15:09:59.435Z,27.40
2022-08-10T15:12:38.300Z,27.30
2022-08-10T15:15:09.606Z,27.20
2022-08-10T15:17:39.721Z,27.20
2022-08-10T15:20:21.552Z,27.10
2022-08-10T15:22:53.951Z,27.10
2022-08-10T15:25:26.159Z,27.00
2022-08-10T15:28:08.245Z,26.90
2022-08-10T15:30:45.257Z,26.90
2022-08-10T15:33:57.399Z,26.90
2022-08-10T15:36:43.685Z,26.80
2022-08-10T15:40:22.410Z,26.80
2022-08-10T15:43:27.784Z,26.80
2022-08-10T15:46:17.167Z,26.80
2022-08-10T15:48:48.256Z,26.70
2022-08-10T15:51:33.824Z,26.70
2022-08-10T15:54:17.767Z,26.70
2022-08-10T15:57:09.576Z,26.70
2022-08-10T15:59:53.528Z,26.70
2022-08-10T16:02:26.224Z,26.70
2022-08-10T16:05:06.616Z,26.70
2022-08-10T16:07:49.116Z,26.70
2022-08-10T16:10:29.340Z,26.70
2022-08-10T16:13:51.090Z,26.70
2022-08-10T16:15:55.320Z,26.70
2022-08-10T16:18:26.983Z,26.70
2022-08-10T16:20:57.828Z,26.70
2022-08-10T16:23:29.311Z,26.70
2022-08-10T16:26:05.099Z,26.70
2022-08-10T16:28:55.447Z,26.60
2022-08-10T16:31:25.889Z,26.60
2022-08-10T16:33:55.498Z,26.60
2022-08-10T16:36:34.169Z,26.60
2022-08-10T16:39:02.015Z,26.60
2022-08-10T16:42:02.193Z,26.50
2022-08-10T16:44:22.970Z,26.50
2022-08-10T16:46:50.623Z,26.50
2022-08-10T16:49:19.465Z,26.50
2022-08-10T16:51:48.415Z,26.50
2022-08-10T16:54:26.363Z,26.50
2022-08-10T16:57:02.703Z,26.50
2022-08-10T16:59:36.796Z,26.50
2022-08-10T17:02:05.061Z,26.50
2022-08-10T17:04:35.353Z,26.50
2022-08-10T17:07:11.552Z,26.50
2022-08-10T17:09:39.516Z,26.50
2022-08-10T17:12:11.571Z,26.60
2022-08-10T17:14:40.547Z,26.80
2022-08-10T17:17:26.454Z,27.20
2022-08-10T17:20:32.141Z,27.70
2022-08-10T17:22:49.561Z,27.80
2022-08-10T17:25:23.457Z,27.70
2022-08-10T17:28:12.552Z,27.50
2022-08-10T17:30:57.631Z,27.50
2022-08-10T17:33:30.608Z,27.50
2022-08-10T17:36:03.480Z,27.30
2022-08-10T17:38:31.495Z,27.10
2022-08-10T17:41:11.957Z,26.90
2022-08-10T17:43:46.331Z,26.80
2022-08-10T17:46:33.068Z,26.70
2022-08-10T17:49:05.137Z,26.60
2022-08-10T17:51:36.455Z,26.50
2022-08-10T17:54:31.236Z,26.40
2022-08-10T17:57:01.808Z,26.40
2022-08-10T17:59:31.980Z,26.30
2022-08-10T18:02:14.795Z,26.30
2022-08-10T18:04:48.775Z,26.20
2022-08-10T18:07:16.268Z,26.20
2022-08-10T18:09:49.751Z,26.20
2022-08-10T18:12:29.128Z,26.10
2022-08-10T18:15:04.457Z,26.10
2022-08-10T18:17:39.684Z,26.10
2022-08-10T18:20:08.776Z,26.10
2022-08-10T18:22:48.076Z,26.10
2022-08-10T18:25:23.670Z,26.10
2022-08-10T18:28:04.076Z,26.00
2022-08-10T18:30:36.584Z,26.00
2022-08-10T18:33:08.654Z,25.90
2022-08-10T18:35:36.011Z,25.90
2022-08-10T18:38:04.898Z,25.90
2022-08-10T18:40:35.775Z,25.90
2022-08-10T18:44:07.198Z,25.80
2022-08-10T18:45:57.220Z,25.80
2022-08-10T18:48:33.630Z,25.80
2022-08-10T18:51:06.104Z,25.80
2022-08-10T18:53:48.066Z,25.70
2022-08-10T18:56:21.111Z,25.70
2022-08-10T18:59:15.913Z,25.70
2022-08-10T19:02:01.160Z,25.70
2022-08-10T19:04:35.886Z,25.60
2022-08-10T19:07:30.353Z,25.60
2022-08-10T19:10:06.165Z,25.60
2022-08-10T19:12:41.348Z,25.60
2022-08-10T19:15:34.442Z,25.60
2022-08-10T19:18:07.422Z,25.60
2022-08-10T19:21:02.791Z,25.50
2022-08-10T19:23:29.543Z,25.50
2022-08-10T19:26:41.861Z,25.50
2022-08-10T19:30:11.996Z,25.50
2022-08-10T19:32:19.216Z,25.40
2022-08-10T19:35:08.284Z,25.40
2022-08-10T19:38:00.293Z,25.40
2022-08-10T19:40:44.537Z,25.40
2022-08-10T19:44:00.807Z,25.40
2022-08-10T19:46:39.914Z,25.30
2022-08-10T19:49:25.181Z,25.30
2022-08-10T19:52:11.573Z,25.30
2022-08-10T19:54:43.075Z,25.30
2022-08-10T19:57:26.050Z,25.30
2022-08-10T20:00:18.734Z,25.20
2022-08-10T20:02:51.581Z,25.20
2022-08-10T20:05:23.240Z,25.20
2022-08-10T20:07:58.563Z,25.20
2022-08-10T20:10:33.646Z,25.20
2022-08-10T20:13:42.720Z,25.20
2022-08-10T20:16:26.693Z,25.20
2022-08-10T20:19:24.562Z,25.10
2022-08-10T20:22:14.444Z,25.00
2022-08-10T20:24:52.420Z,25.00
2022-08-10T20:27:57.826Z,25.00
2022-08-10T20:30:14.160Z,25.00
2022-08-10T20:32:54.683Z,24.90
2022-08-10T20:35:58.720Z,24.90
2022-08-10T20:38:34.105Z,24.80
2022-08-10T20:41:12.940Z,24.80
2022-08-10T20:44:03.733Z,24.70
2022-08-10T20:46:40.608Z,24.70
2022-08-10T20:49:52.875Z,24.60
2022-08-10T20:52:22.920Z,24.60
2022-08-10T20:54:53.959Z,24.60
2022-08-10T20:57:54.684Z,24.50
2022-08-10T21:00:17.140Z,24.50
2022-08-10T21:03:21.101Z,24.50
2022-08-10T21:06:41.383Z,24.50
2022-08-10T21:09:37.524Z,24.40
2022-08-10T21:12:48.763Z,24.40
2022-08-10T21:15:31.786Z,24.40
2022-08-10T21:18:12.052Z,24.30
2022-08-10T21:20:54.205Z,24.30
2022-08-10T21:23:45.993Z,24.30
2022-08-10T21:26:29.796Z,24.30
2022-08-10T21:28:56.725Z,24.30
2022-08-10T21:31:27.951Z,24.30
2022-08-10T21:34:10.509Z,24.30
2022-08-10T21:36:39.997Z,24.30
2022-08-10T21:39:45.595Z,24.20
2022-08-10T21:42:57.236Z,24.20
2022-08-10T21:46:18.302Z,24.20
2022-08-10T21:49:17.252Z,24.20
2022-08-10T21:56:15.818Z,24.10
2022-08-10T21:59:19.003Z,24.10
2022-08-10T22:02:11.570Z,24.00
2022-08-10T22:04:57.933Z,24.00
2022-08-10T22:07:46.858Z,24.00
2022-08-10T22:10:35.971Z,24.00
2022-08-10T22:13:23.747Z,24.00
2022-08-10T22:16:17.286Z,23.90
2022-08-10T22:19:08.549Z,24.00
2022-08-10T22:25:52.150Z,24.00
2022-08-10T22:28:38.313Z,24.00
2022-08-10T22:31:26.094Z,24.00
2022-08-10T22:31:38.498Z,24.00
2022-08-10T22:34:45.472Z,23.90
2022-08-10T22:37:55.305Z,24.00
2022-08-10T22:40:43.178Z,23.90
2022-08-10T22:43:36.901Z,23.90
2022-08-10T22:46:29.816Z,23.90
2022-08-10T22:48:59.677Z,23.90
2022-08-10T22:51:56.894Z,23.80
2022-08-10T22:54:51.225Z,23.80
2022-08-10T22:57:37.054Z,23.80
2022-08-10T23:00:15.482Z,23.80
2022-08-10T23:03:03.983Z,23.80
2022-08-10T23:05:34.692Z,23.80
2022-08-10T23:08:29.651Z,23.80
2022-08-10T23:11:02.064Z,23.80
2022-08-10T23:13:35.494Z,23.70
2022-08-10T23:16:38.963Z,23.70
2022-08-10T23:19:28.490Z,23.70
2022-08-10T23:22:04.507Z,23.60
2022-08-10T23:24:38.633Z,23.60
2022-08-10T23:27:12.867Z,23.60
2022-08-10T23:30:09.693Z,23.60
2022-08-10T23:32:41.684Z,23.60
2022-08-10T23:36:32.265Z,23.60
2022-08-10T23:38:08.039Z,23.50
2022-08-10T23:40:36.415Z,23.50
2022-08-10T23:43:05.595Z,23.50
2022-08-10T23:45:53.501Z,23.50
2022-08-10T23:48:23.671Z,23.50
2022-08-10T23:50:58.541Z,23.50
2022-08-10T23:53:38.757Z,23.50
2022-08-10T23:56:14.255Z,23.50
2022-08-10T23:58:47.193Z,23.40
